Terminal Aerodrome Forecast
Issued by NWS Louisville, KY

Home | Current Version | Previous Version | Text Only | Print | Product List | Glossary On
Versions: 1 2 3 4 5 6 7 8 9 10 11 12
887
FTUS43 KLMK 070520
TAFSDF
TAF
KSDF 070520Z 0706/0812 18006KT P6SM SKC
     FM071600 21012G20KT P6SM SCT120
     FM072300 22007KT P6SM BKN060
     FM080900 25007KT P6SM VCSH BKN050=

USA.gov is the U.S. government's official web portal to all federal, state and local government web resources and services.